Time;durP1;ratioP1;P1;durP2;ratioP2;P2;SDS_P1;SDS_P2;PMS_P1;PMS_P2;Temp;Humidity;BMP_temperature;BMP_pressure;BME280_temperature;BME280_humidity;BME280_pressure;Samples;Min_cycle;Max_cycle;Signal;HPM_P1;HPM_P2
2024/02/20 08:00:44;;;;;;;10.77;2.67;;;7.80;99.90;;;;;;4859350;29;20227;-77
2024/02/20 08:03:12;;;;;;;9.20;2.93;;;7.80;99.90;;;;;;4861523;29;20200;-75
2024/02/20 08:05:41;;;;;;;20.87;3.30;;;7.90;99.90;;;;;;4867687;29;20231;-79
2024/02/20 08:08:08;;;;;;;8.70;2.77;;;7.90;99.90;;;;;;4871832;29;20216;-77
2024/02/20 08:10:35;;;;;;;7.80;2.77;;;7.90;99.90;;;;;;4878241;29;20277;-78
2024/02/20 08:13:02;;;;;;;12.63;3.43;;;8.00;99.90;;;;;;4880354;29;20262;-78
2024/02/20 08:15:29;;;;;;;7.93;2.70;;;8.20;99.90;;;;;;4880412;29;20269;-76
2024/02/20 08:17:57;;;;;;;11.30;2.90;;;8.30;99.90;;;;;;4880489;29;20223;-79
2024/02/20 08:20:24;;;;;;;10.47;4.00;;;8.40;99.90;;;;;;4879950;29;20207;-76
2024/02/20 08:22:51;;;;;;;5.53;2.50;;;8.40;99.90;;;;;;4880440;29;20302;-76
2024/02/20 08:25:18;;;;;;;8.97;2.87;;;8.50;99.90;;;;;;4879865;29;20714;-76
2024/02/20 08:27:45;;;;;;;10.87;2.77;;;8.70;99.90;;;;;;4879725;29;20286;-76
2024/02/20 08:30:14;;;;;;;9.70;4.30;;;8.70;99.90;;;;;;4879635;29;20602;-76
2024/02/20 08:32:44;;;;;;;11.90;3.23;;;8.80;99.90;;;;;;4880110;29;20250;-76
2024/02/20 08:35:12;;;;;;;6.40;2.53;;;8.80;99.90;;;;;;4880114;29;20283;-77
2024/02/20 08:37:40;;;;;;;6.93;2.53;;;8.90;99.90;;;;;;4879874;29;20219;-80
2024/02/20 08:40:08;;;;;;;10.77;2.70;;;8.90;99.90;;;;;;4879751;29;20209;-76
2024/02/20 08:42:34;;;;;;;6.43;2.30;;;9.10;99.90;;;;;;4879934;29;20211;-77
2024/02/20 08:45:03;;;;;;;6.73;2.20;;;9.10;99.90;;;;;;4879618;29;20213;-77
2024/02/20 08:47:30;;;;;;;8.03;2.73;;;9.30;99.90;;;;;;4879607;29;20287;-76
2024/02/20 08:49:57;;;;;;;8.90;2.30;;;9.30;99.90;;;;;;4879641;29;20271;-76
2024/02/20 08:52:25;;;;;;;7.17;2.27;;;9.30;99.90;;;;;;4879390;29;20629;-76
2024/02/20 08:54:52;;;;;;;8.77;2.00;;;9.30;99.90;;;;;;4879709;29;20206;-74
2024/02/20 08:57:19;;;;;;;8.07;2.67;;;9.30;99.90;;;;;;4879793;29;20215;-77
2024/02/20 08:59:47;;;;;;;7.03;2.40;;;9.40;99.90;;;;;;4878934;29;20215;-76
2024/02/20 09:02:15;;;;;;;13.80;2.43;;;9.60;99.90;;;;;;4879407;29;20304;-75
2024/02/20 09:04:42;;;;;;;8.27;1.93;;;9.50;99.90;;;;;;4879095;29;20635;-76
2024/02/20 09:07:09;;;;;;;7.80;2.00;;;9.50;99.90;;;;;;4879851;29;20234;-77
2024/02/20 09:09:40;;;;;;;5.33;2.23;;;9.50;99.90;;;;;;4879422;29;20239;-76
2024/02/20 09:12:08;;;;;;;7.93;1.97;;;9.50;99.90;;;;;;4879371;29;20615;-76
2024/02/20 09:14:35;;;;;;;10.40;1.80;;;9.60;99.90;;;;;;4879503;29;20227;-77
2024/02/20 09:17:02;;;;;;;7.70;2.40;;;9.60;99.90;;;;;;4879738;29;20722;-79
2024/02/20 09:19:29;;;;;;;10.40;2.07;;;9.70;99.90;;;;;;4879470;29;20572;-74
2024/02/20 09:21:56;;;;;;;11.30;2.23;;;9.60;99.90;;;;;;4879633;29;20223;-77
2024/02/20 09:24:23;;;;;;;7.67;2.03;;;9.60;99.90;;;;;;4879910;29;20302;-74
2024/02/20 09:26:51;;;;;;;5.90;2.30;;;9.70;99.90;;;;;;4879282;29;20237;-75
2024/02/20 09:29:21;;;;;;;6.27;1.93;;;9.70;99.90;;;;;;4879464;29;20215;-74
2024/02/20 09:31:48;;;;;;;10.83;2.20;;;9.90;99.90;;;;;;4879029;29;20215;-74
2024/02/20 09:34:15;;;;;;;9.43;2.43;;;10.00;99.90;;;;;;4879606;29;20306;-75
2024/02/20 09:36:42;;;;;;;10.03;2.33;;;10.10;99.90;;;;;;4878971;29;20269;-74
2024/02/20 09:39:09;;;;;;;6.47;1.60;;;10.00;99.90;;;;;;4879391;29;20294;-78
2024/02/20 09:41:38;;;;;;;9.97;1.83;;;10.20;99.90;;;;;;4879452;29;20226;-78
2024/02/20 09:44:08;;;;;;;7.60;1.90;;;10.30;99.90;;;;;;4879427;29;20210;-76
2024/02/20 09:46:42;;;;;;;9.27;1.97;;;10.60;99.90;;;;;;4879268;29;20264;-74
2024/02/20 09:49:10;;;;;;;3.57;1.53;;;10.40;99.90;;;;;;4879396;29;20207;-81
2024/02/20 09:51:39;;;;;;;4.30;1.97;;;10.40;99.90;;;;;;4879349;29;20281;-82
2024/02/20 09:54:06;;;;;;;7.00;1.70;;;10.50;99.90;;;;;;4879927;29;20218;-81
2024/02/20 09:56:36;;;;;;;6.80;2.07;;;10.60;99.90;;;;;;4879236;29;20230;-74
2024/02/20 09:59:04;;;;;;;8.33;1.57;;;10.60;99.90;;;;;;4879108;29;20223;-75
2024/02/20 10:01:33;;;;;;;5.47;1.27;;;10.70;99.90;;;;;;4879493;29;20219;-74
2024/02/20 10:04:04;;;;;;;4.87;1.37;;;10.70;99.90;;;;;;4879308;29;20207;-74
2024/02/20 10:06:31;;;;;;;9.73;1.70;;;10.70;99.90;;;;;;4879076;29;20265;-74
2024/02/20 10:08:58;;;;;;;9.93;2.10;;;10.70;99.90;;;;;;4879146;29;20577;-74
2024/02/20 10:11:25;;;;;;;8.17;1.47;;;10.80;99.90;;;;;;4880300;29;20270;-74
2024/02/20 10:13:55;;;;;;;8.93;1.57;;;10.80;99.90;;;;;;4882602;29;20233;-74
2024/02/20 10:16:22;;;;;;;6.60;1.70;;;10.80;99.90;;;;;;4882624;29;20260;-74
2024/02/20 10:18:59;;;;;;;7.73;1.50;;;10.90;99.90;;;;;;4883258;29;20396;-76
2024/02/20 10:21:26;;;;;;;6.57;1.50;;;11.10;99.90;;;;;;4883344;29;20314;-74
2024/02/20 10:24:03;;;;;;;6.13;1.93;;;11.30;99.90;;;;;;4882132;29;20695;-74
2024/02/20 10:26:30;;;;;;;10.07;2.17;;;11.50;99.90;;;;;;4882118;29;20706;-73
2024/02/20 10:28:58;;;;;;;9.40;1.33;;;11.40;99.90;;;;;;4882159;29;20694;-73
2024/02/20 10:31:25;;;;;;;3.87;1.03;;;11.50;99.90;;;;;;4882222;29;20239;-74
2024/02/20 10:33:52;;;;;;;6.30;1.63;;;11.60;99.90;;;;;;4882343;29;20211;-75
2024/02/20 10:36:22;;;;;;;10.47;1.90;;;11.70;99.90;;;;;;4883111;29;20765;-74
2024/02/20 10:38:50;;;;;;;6.17;1.83;;;11.70;99.90;;;;;;4895025;29;20215;-74
2024/02/20 10:41:18;;;;;;;4.63;1.50;;;11.70;99.90;;;;;;4896379;29;20230;-75
2024/02/20 10:43:47;;;;;;;6.07;1.60;;;11.80;99.90;;;;;;4891566;29;20303;-74
2024/02/20 10:46:14;;;;;;;11.07;1.87;;;11.70;99.90;;;;;;4882658;29;20235;-74
2024/02/20 10:48:45;;;;;;;7.40;1.40;;;11.70;99.90;;;;;;4881896;29;20302;-74
2024/02/20 10:51:13;;;;;;;8.90;1.23;;;11.60;99.90;;;;;;4881968;29;20250;-74
2024/02/20 10:53:42;;;;;;;4.13;1.20;;;11.70;99.90;;;;;;4882009;29;20214;-75
2024/02/20 10:56:10;;;;;;;5.90;1.03;;;11.80;99.90;;;;;;4881825;29;20231;-74
2024/02/20 10:58:39;;;;;;;6.57;1.07;;;11.80;99.90;;;;;;4881748;29;20230;-74
2024/02/20 11:01:10;;;;;;;5.13;1.13;;;11.80;99.90;;;;;;4881552;29;20215;-73
2024/02/20 11:03:39;;;;;;;5.37;0.97;;;11.90;99.90;;;;;;4881659;29;20215;-74
2024/02/20 11:06:06;;;;;;;5.13;1.10;;;12.00;99.90;;;;;;4881868;29;20238;-74
2024/02/20 11:08:33;;;;;;;8.23;1.40;;;12.00;99.90;;;;;;4881991;29;20301;-73
2024/02/20 11:11:12;;;;;;;9.67;2.10;;;11.90;99.90;;;;;;4881346;29;20702;-74
2024/02/20 11:13:39;;;;;;;13.80;1.40;;;11.70;99.90;;;;;;4882012;29;20218;-74
2024/02/20 11:16:10;;;;;;;6.47;1.40;;;11.90;99.90;;;;;;4882194;29;20235;-74
2024/02/20 11:18:37;;;;;;;4.60;1.23;;;12.00;99.90;;;;;;4888409;29;20238;-74
2024/02/20 11:21:06;;;;;;;7.00;1.10;;;11.90;99.90;;;;;;4881479;29;20239;-75
2024/02/20 11:23:35;;;;;;;7.07;1.63;;;12.00;99.90;;;;;;4881151;29;20301;-74
2024/02/20 11:26:08;;;;;;;5.53;1.57;;;11.90;99.90;;;;;;4881118;29;20241;-74
2024/02/20 11:28:37;;;;;;;5.27;1.20;;;12.00;99.90;;;;;;4881057;29;20298;-74
2024/02/20 11:31:05;;;;;;;5.73;1.50;;;12.10;99.90;;;;;;4880938;29;20646;-73
2024/02/20 11:33:32;;;;;;;7.47;1.33;;;12.00;99.90;;;;;;4882047;29;20322;-79
2024/02/20 11:36:00;;;;;;;11.03;1.60;;;11.90;99.90;;;;;;4881605;29;20327;-82
2024/02/20 11:38:28;;;;;;;6.20;1.37;;;11.90;99.90;;;;;;4881815;29;20314;-75
2024/02/20 11:40:57;;;;;;;6.10;1.20;;;11.90;99.90;;;;;;4880863;29;20289;-81
2024/02/20 11:43:25;;;;;;;4.00;1.20;;;12.00;99.90;;;;;;4881140;29;20217;-75
2024/02/20 11:45:59;;;;;;;6.23;1.57;;;12.00;99.90;;;;;;4881193;29;20267;-81
2024/02/20 11:48:26;;;;;;;10.27;1.77;;;12.00;99.90;;;;;;4881383;29;20222;-77
2024/02/20 11:50:56;;;;;;;6.80;1.47;;;12.20;99.90;;;;;;4881310;29;20242;-76
2024/02/20 11:53:23;;;;;;;6.57;1.50;;;12.40;99.90;;;;;;4882149;29;20423;-75
2024/02/20 11:55:53;;;;;;;5.07;1.40;;;12.50;99.90;;;;;;4880836;29;20318;-76
2024/02/20 11:58:21;;;;;;;8.80;2.83;;;12.10;99.90;;;;;;4880646;29;20227;-76
2024/02/20 12:00:49;;;;;;;5.73;2.23;;;11.70;99.90;;;;;;4880472;29;20621;-75
2024/02/20 12:03:30;;;;;;;8.07;1.80;;;11.50;99.90;;;;;;4880758;29;20219;-74
2024/02/20 12:06:02;;;;;;;8.53;2.40;;;11.30;99.90;;;;;;4880332;29;20227;-75
2024/02/20 12:08:39;;;;;;;6.67;1.60;;;11.10;99.90;;;;;;4880624;29;20674;-75
2024/02/20 12:11:07;;;;;;;4.83;2.10;;;11.10;99.90;;;;;;4880522;29;20238;-75
2024/02/20 12:13:34;;;;;;;6.50;2.27;;;11.00;99.90;;;;;;4880608;29;20299;-75
2024/02/20 12:16:00;;;;;;;8.17;2.50;;;11.10;99.90;;;;;;4880256;29;20323;-75
2024/02/20 12:18:30;;;;;;;4.77;2.03;;;11.10;99.90;;;;;;4880344;29;20267;-74
2024/02/20 12:21:05;;;;;;;6.47;2.57;;;11.30;99.90;;;;;;4880255;29;20663;-77
2024/02/20 12:23:32;;;;;;;8.73;2.20;;;11.40;99.90;;;;;;4881798;29;20217;-74
2024/02/20 12:26:05;;;;;;;7.57;2.70;;;11.40;99.90;;;;;;4880436;29;20685;-75
2024/02/20 12:28:32;;;;;;;9.40;3.10;;;11.20;99.90;;;;;;4880604;29;20651;-74
2024/02/20 12:30:59;;;;;;;8.47;3.70;;;11.10;99.90;;;;;;4879770;29;20613;-74
2024/02/20 12:33:26;;;;;;;9.77;3.00;;;11.10;99.90;;;;;;4879285;29;20305;-75
2024/02/20 12:35:57;;;;;;;7.30;3.30;;;11.20;99.90;;;;;;4880359;29;20291;-75
2024/02/20 12:38:24;;;;;;;8.93;3.10;;;11.00;99.90;;;;;;4880633;29;20611;-75
2024/02/20 12:40:50;;;;;;;9.83;3.33;;;10.90;99.90;;;;;;4880028;29;20219;-76
2024/02/20 12:43:18;;;;;;;9.17;2.90;;;10.90;99.90;;;;;;4880057;29;20302;-77
2024/02/20 12:45:45;;;;;;;7.80;2.47;;;11.00;99.90;;;;;;4879820;29;20235;-74
2024/02/20 12:48:12;;;;;;;5.93;2.87;;;10.80;99.90;;;;;;4880041;29;20297;-75
2024/02/20 12:50:39;;;;;;;8.93;2.60;;;10.80;99.90;;;;;;4879850;29;20363;-75
2024/02/20 12:53:08;;;;;;;6.07;2.50;;;10.90;99.90;;;;;;4880193;29;20222;-76
2024/02/20 12:55:37;;;;;;;12.87;3.00;;;10.80;99.90;;;;;;4880024;29;20262;-79
2024/02/20 12:58:04;;;;;;;7.57;2.87;;;10.60;99.90;;;;;;4880080;29;20218;-79
2024/02/20 13:00:31;;;;;;;9.57;3.60;;;10.50;99.90;;;;;;4879966;29;20221;-75
2024/02/20 13:02:59;;;;;;;8.63;2.97;;;10.60;99.90;;;;;;4879891;29;20754;-75
2024/02/20 13:05:26;;;;;;;9.23;2.57;;;10.70;99.90;;;;;;4879788;29;20352;-75
2024/02/20 13:07:55;;;;;;;8.60;2.80;;;10.70;99.90;;;;;;4879646;29;20301;-74
2024/02/20 13:10:26;;;;;;;10.63;2.30;;;10.80;99.90;;;;;;4879728;29;20539;-79
2024/02/20 13:12:53;;;;;;;8.83;2.83;;;10.80;99.90;;;;;;4880167;29;20211;-78
2024/02/20 13:15:20;;;;;;;8.10;3.00;;;10.50;99.90;;;;;;4880203;29;20234;-78
2024/02/20 13:17:46;;;;;;;9.90;2.70;;;10.40;99.90;;;;;;4879945;29;20215;-75
2024/02/20 13:20:14;;;;;;;10.43;2.53;;;10.40;99.90;;;;;;4879788;29;20313;-75
2024/02/20 13:22:41;;;;;;;8.23;3.30;;;10.50;99.90;;;;;;4879369;29;20301;-75
2024/02/20 13:25:08;;;;;;;7.43;2.97;;;10.40;99.90;;;;;;4879673;29;20230;-75
2024/02/20 13:27:36;;;;;;;7.27;2.70;;;10.20;99.90;;;;;;4879413;29;20293;-75
2024/02/20 13:30:03;;;;;;;12.53;3.63;;;10.10;99.90;;;;;;4879413;29;20390;-75
2024/02/20 13:32:30;;;;;;;4.70;2.57;;;10.10;99.90;;;;;;4879202;29;20329;-74
2024/02/20 13:34:58;;;;;;;8.17;2.57;;;10.10;99.90;;;;;;4879485;29;20215;-79
2024/02/20 13:37:27;;;;;;;6.63;2.83;;;10.00;99.90;;;;;;4879185;29;20207;-77
2024/02/20 13:39:54;;;;;;;11.27;2.60;;;10.10;99.90;;;;;;4878955;29;20268;-74
2024/02/20 13:42:20;;;;;;;8.23;2.50;;;10.10;99.90;;;;;;4879223;29;20219;-77
2024/02/20 13:44:49;;;;;;;7.27;2.00;;;10.10;99.90;;;;;;4879614;29;20297;-75
2024/02/20 13:47:16;;;;;;;8.43;1.80;;;10.00;99.90;;;;;;4883003;29;20211;-75
2024/02/20 13:49:42;;;;;;;7.37;2.17;;;10.00;99.90;;;;;;4883081;29;20207;-75
2024/02/20 13:52:09;;;;;;;5.83;2.20;;;10.00;99.90;;;;;;4882912;29;20504;-78
2024/02/20 17:45:41;;;;;;;13.73;2.73;;;8.70;99.90;;;;;;4946309;23;20710;-69
2024/02/20 17:48:08;;;;;;;13.50;3.20;;;8.70;99.90;;;;;;4932731;29;20747;-72
2024/02/20 17:50:35;;;;;;;9.57;2.83;;;8.70;99.90;;;;;;4928153;29;20209;-74
2024/02/20 17:53:02;;;;;;;11.23;3.17;;;8.70;99.90;;;;;;4918142;29;20769;-73
2024/02/20 17:55:29;;;;;;;12.97;4.20;;;8.80;99.90;;;;;;4914603;29;20216;-82
2024/02/20 17:57:56;;;;;;;12.23;4.47;;;8.90;99.90;;;;;;4914065;29;20214;-80
2024/02/20 18:00:23;;;;;;;11.93;4.00;;;8.90;99.90;;;;;;4914650;29;20296;-72
2024/02/20 18:02:52;;;;;;;12.07;3.57;;;8.90;99.90;;;;;;4914015;29;20775;-73
2024/02/20 18:05:19;;;;;;;7.40;2.47;;;9.00;99.90;;;;;;4914178;29;20345;-73
2024/02/20 18:07:45;;;;;;;13.63;3.30;;;9.00;99.90;;;;;;4914665;29;20296;-76
2024/02/20 18:10:13;;;;;;;12.60;3.93;;;9.00;99.90;;;;;;4914477;29;20222;-73
2024/02/20 18:12:39;;;;;;;11.03;3.60;;;9.00;99.90;;;;;;4913672;29;20939;-72
2024/02/20 18:15:09;;;;;;;8.63;3.13;;;9.10;99.90;;;;;;4914363;29;20216;-73
2024/02/20 18:17:36;;;;;;;7.57;3.53;;;9.20;99.90;;;;;;4917995;29;20205;-74
2024/02/20 18:20:06;;;;;;;9.93;3.10;;;9.20;99.90;;;;;;4916094;29;20213;-73
2024/02/20 18:22:33;;;;;;;9.80;3.87;;;9.10;99.90;;;;;;4914057;29;20256;-73
2024/02/20 18:25:00;;;;;;;8.90;2.50;;;9.20;99.90;;;;;;4915362;29;20253;-78
2024/02/20 18:27:26;;;;;;;10.53;2.80;;;9.20;99.90;;;;;;4914840;29;20308;-75
2024/02/20 18:29:53;;;;;;;13.50;3.33;;;9.20;99.90;;;;;;4915179;29;20265;-77
2024/02/20 18:32:20;;;;;;;11.03;3.47;;;9.20;99.90;;;;;;4913942;29;20320;-78
2024/02/20 18:34:47;;;;;;;10.90;3.33;;;9.30;99.90;;;;;;4916533;29;20250;-81
2024/02/20 18:37:16;;;;;;;8.53;2.77;;;9.30;99.90;;;;;;4903945;29;20647;-77
2024/02/20 18:39:46;;;;;;;13.10;2.77;;;9.30;99.90;;;;;;4937533;29;20197;-83
2024/02/20 18:42:14;;;;;;;12.63;3.30;;;9.20;99.90;;;;;;4938587;29;20244;-77
2024/02/20 18:44:41;;;;;;;6.13;2.80;;;9.30;99.90;;;;;;4936769;29;20205;-78
2024/02/20 18:47:08;;;;;;;7.80;2.20;;;9.30;99.90;;;;;;4910239;29;20566;-78
2024/02/20 18:49:35;;;;;;;14.53;4.30;;;9.20;99.90;;;;;;4913278;29;20563;-79
2024/02/20 18:52:02;;;;;;;13.40;3.10;;;9.30;99.90;;;;;;4918335;29;20283;-81
2024/02/20 18:54:32;;;;;;;10.50;3.73;;;9.30;99.90;;;;;;4908787;29;20296;-78
2024/02/20 18:56:59;;;;;;;8.37;2.77;;;9.30;99.90;;;;;;4918979;29;20272;-79
2024/02/20 18:59:26;;;;;;;9.47;2.10;;;9.30;99.90;;;;;;4919144;29;20241;-78
2024/02/20 19:01:53;;;;;;;8.90;2.73;;;9.30;99.90;;;;;;4919185;29;20285;-78
2024/02/20 19:04:19;;;;;;;6.63;3.30;;;9.40;99.90;;;;;;4923165;29;20277;-78
2024/02/20 19:06:47;;;;;;;8.30;3.03;;;9.30;99.90;;;;;;4922421;29;20224;-79
2024/02/20 19:09:16;;;;;;;8.47;2.77;;;9.30;99.90;;;;;;4920319;29;20241;-77
2024/02/20 19:11:45;;;;;;;11.30;2.90;;;9.40;99.90;;;;;;4923282;29;20245;-78
2024/02/20 19:14:13;;;;;;;5.50;2.37;;;9.40;99.90;;;;;;4906108;29;20209;-77
2024/02/20 19:16:40;;;;;;;10.63;2.50;;;9.40;99.90;;;;;;4919099;29;20237;-80
2024/02/20 19:19:07;;;;;;;10.07;3.03;;;9.40;99.90;;;;;;4918406;29;20284;-79
2024/02/20 19:21:34;;;;;;;8.53;3.07;;;9.30;99.90;;;;;;4918352;29;20312;-79
2024/02/20 19:24:01;;;;;;;9.60;3.20;;;9.30;99.90;;;;;;4905172;29;20245;-80
2024/02/20 19:26:28;;;;;;;8.63;2.70;;;9.30;99.90;;;;;;4918580;29;20300;-80
2024/02/20 19:28:57;;;;;;;7.03;2.73;;;9.40;99.90;;;;;;4918521;29;20210;-79
2024/02/20 19:31:24;;;;;;;5.87;2.40;;;9.40;99.90;;;;;;4917976;29;20214;-79
2024/02/20 19:33:51;;;;;;;5.27;2.47;;;9.40;99.90;;;;;;4918390;29;20210;-79
2024/02/20 19:36:18;;;;;;;6.97;2.40;;;9.40;99.90;;;;;;4917657;29;20301;-79
2024/02/20 19:38:46;;;;;;;6.23;2.63;;;9.30;99.90;;;;;;4918208;29;20292;-79
2024/02/20 19:41:13;;;;;;;9.63;2.80;;;9.30;99.90;;;;;;4917813;29;20660;-79
2024/02/20 19:43:40;;;;;;;11.77;2.37;;;9.50;99.90;;;;;;4917430;29;20624;-79
2024/02/20 19:46:09;;;;;;;7.53;2.33;;;9.40;99.90;;;;;;4918229;29;20308;-78
2024/02/20 19:48:37;;;;;;;9.70;2.27;;;9.40;99.90;;;;;;4918022;29;20250;-78
2024/02/20 19:51:04;;;;;;;9.87;2.27;;;9.30;99.90;;;;;;4918301;29;20288;-78
2024/02/20 19:53:31;;;;;;;6.83;2.37;;;9.40;99.90;;;;;;4917569;29;20249;-79
2024/02/20 19:55:58;;;;;;;12.30;2.10;;;9.40;99.90;;;;;;4917545;29;20214;-78
2024/02/20 19:58:26;;;;;;;11.47;2.50;;;9.40;99.90;;;;;;4917530;29;20557;-78
2024/02/20 20:00:53;;;;;;;14.20;2.33;;;9.30;99.90;;;;;;4917738;29;20239;-78
2024/02/20 20:03:23;;;;;;;7.03;2.20;;;9.30;99.90;;;;;;4917651;29;20237;-79
2024/02/20 20:05:50;;;;;;;9.60;2.40;;;9.30;99.90;;;;;;4917791;29;20238;-79
2024/02/20 20:08:17;;;;;;;9.73;2.47;;;9.40;99.90;;;;;;4917953;29;20220;-79
2024/02/20 20:10:44;;;;;;;7.83;1.83;;;9.40;99.90;;;;;;4914882;29;20749;-79
2024/02/20 20:13:11;;;;;;;8.77;2.30;;;9.40;99.90;;;;;;4908994;29;20343;-78
2024/02/20 20:15:38;;;;;;;7.20;2.07;;;9.60;99.90;;;;;;4917467;29;20217;-79
2024/02/20 20:18:06;;;;;;;8.97;2.10;;;9.60;99.90;;;;;;4917479;29;20299;-79
2024/02/20 20:20:34;;;;;;;10.70;3.00;;;9.60;99.90;;;;;;4917124;29;20214;-81
2024/02/20 20:23:01;;;;;;;7.87;2.70;;;9.60;99.90;;;;;;4916904;29;20284;-78
2024/02/20 20:25:28;;;;;;;6.67;2.03;;;9.50;99.90;;;;;;4917000;29;20261;-78
2024/02/20 20:27:54;;;;;;;9.97;2.03;;;9.40;99.90;;;;;;4916896;29;20583;-80
2024/02/20 20:30:23;;;;;;;10.00;2.13;;;9.50;99.90;;;;;;4917660;29;20233;-78
2024/02/20 20:32:50;;;;;;;6.87;1.80;;;9.60;99.90;;;;;;4917578;29;20293;-81
2024/02/20 20:35:17;;;;;;;5.90;2.30;;;9.60;99.90;;;;;;4917245;29;20308;-78
2024/02/20 20:37:51;;;;;;;4.23;1.93;;;9.60;99.90;;;;;;4917277;29;20213;-82
2024/02/20 20:40:19;;;;;;;5.87;1.83;;;9.50;99.90;;;;;;4917445;29;20206;-82
2024/02/20 20:42:46;;;;;;;6.10;1.57;;;9.60;99.90;;;;;;4917350;29;20328;-80
2024/02/20 20:45:13;;;;;;;4.13;1.57;;;9.50;99.90;;;;;;4910922;29;20225;-80
2024/02/20 20:47:41;;;;;;;6.47;1.60;;;9.50;99.90;;;;;;4902922;29;20221;-80
2024/02/20 20:50:08;;;;;;;4.23;1.83;;;9.50;99.90;;;;;;4898004;29;20209;-80
2024/02/20 20:52:35;;;;;;;5.50;1.67;;;9.50;99.90;;;;;;4897850;29;20238;-80
2024/02/20 20:55:04;;;;;;;5.87;2.10;;;9.50;99.90;;;;;;4897364;29;20222;-81
2024/02/20 20:57:31;;;;;;;4.43;1.60;;;9.50;99.90;;;;;;4898508;29;20214;-80
2024/02/20 20:59:58;;;;;;;9.83;2.33;;;9.60;99.90;;;;;;4898663;29;20210;-80
2024/02/20 21:02:25;;;;;;;13.83;2.10;;;9.60;99.90;;;;;;4897929;29;20265;-80
2024/02/20 21:04:52;;;;;;;5.90;2.33;;;9.50;99.90;;;;;;4897751;29;20307;-80
2024/02/20 21:07:19;;;;;;;8.30;1.97;;;9.50;99.90;;;;;;4897753;29;20274;-79
2024/02/20 21:09:46;;;;;;;9.47;2.33;;;9.60;99.90;;;;;;4897715;29;20237;-80
2024/02/20 21:12:14;;;;;;;8.53;2.00;;;9.60;99.90;;;;;;4897747;29;20273;-80
2024/02/20 21:14:41;;;;;;;4.93;1.93;;;9.50;99.90;;;;;;4898025;29;20291;-80
2024/02/20 21:17:08;;;;;;;10.83;2.10;;;9.50;99.90;;;;;;4897762;29;20317;-80
2024/02/20 21:19:35;;;;;;;8.43;2.40;;;9.50;99.90;;;;;;4904352;29;20219;-79
2024/02/20 21:22:03;;;;;;;8.30;1.93;;;9.60;99.90;;;;;;4901873;29;20329;-81
2024/02/20 21:24:30;;;;;;;9.27;2.57;;;9.70;99.90;;;;;;4898001;29;20214;-80
2024/02/20 21:26:57;;;;;;;7.30;1.80;;;9.70;99.90;;;;;;4897729;29;20302;-80
2024/02/20 21:29:25;;;;;;;9.90;1.90;;;9.70;99.90;;;;;;4897704;29;20640;-79
2024/02/20 21:31:52;;;;;;;8.03;2.10;;;9.60;99.90;;;;;;4897623;29;20325;-81
2024/02/20 21:34:19;;;;;;;8.37;1.77;;;9.60;99.90;;;;;;4897949;29;20728;-79
2024/02/20 21:36:46;;;;;;;12.27;2.77;;;9.60;99.90;;;;;;4897949;29;20210;-80
2024/02/20 21:39:13;;;;;;;8.67;2.07;;;9.70;99.90;;;;;;4897934;29;20214;-79
2024/02/20 21:41:40;;;;;;;6.07;1.77;;;9.70;99.90;;;;;;4897706;29;20226;-79
2024/02/20 21:44:07;;;;;;;6.47;2.20;;;9.70;99.90;;;;;;4897972;29;20299;-80
2024/02/20 21:46:36;;;;;;;7.37;2.47;;;9.70;99.90;;;;;;4897497;29;20229;-79
2024/02/20 21:49:03;;;;;;;6.50;2.00;;;9.80;99.90;;;;;;4897947;29;20305;-80
2024/02/20 21:51:30;;;;;;;3.87;1.60;;;9.80;99.90;;;;;;4897515;29;20234;-79
2024/02/20 21:53:56;;;;;;;5.50;1.90;;;9.80;99.90;;;;;;4902337;29;20600;-79
2024/02/20 21:56:22;;;;;;;8.73;2.13;;;9.80;99.90;;;;;;4914787;29;20300;-80
2024/02/20 21:58:49;;;;;;;14.17;2.40;;;9.90;99.90;;;;;;4916570;29;20220;-79
2024/02/20 22:01:16;;;;;;;6.13;1.67;;;9.80;99.90;;;;;;4916196;29;20283;-81
2024/02/20 22:03:45;;;;;;;9.80;2.27;;;10.00;99.90;;;;;;4916345;29;20752;-80
2024/02/20 22:06:12;;;;;;;6.73;2.17;;;9.90;99.90;;;;;;4917744;29;20206;-80
2024/02/20 22:08:39;;;;;;;4.63;1.87;;;9.80;99.90;;;;;;4920299;29;20556;-80
2024/02/20 22:11:07;;;;;;;6.57;1.50;;;9.80;99.90;;;;;;4920120;29;20665;-79
2024/02/20 22:13:34;;;;;;;11.37;2.13;;;9.80;99.90;;;;;;4920026;29;20645;-78
2024/02/20 22:16:00;;;;;;;7.13;1.80;;;9.90;99.90;;;;;;4920032;29;20301;-79
2024/02/20 22:18:27;;;;;;;8.93;1.80;;;9.90;99.90;;;;;;4920403;29;20237;-79
2024/02/20 22:20:56;;;;;;;10.30;2.23;;;9.90;99.90;;;;;;4923189;29;20336;-80
2024/02/20 22:23:22;;;;;;;4.93;1.93;;;9.80;99.90;;;;;;4924325;29;20260;-79
2024/02/20 22:25:49;;;;;;;5.20;1.90;;;9.80;99.90;;;;;;4923026;29;20261;-78
2024/02/20 22:28:16;;;;;;;6.63;1.80;;;9.80;99.90;;;;;;4933360;29;20291;-76
2024/02/20 22:30:43;;;;;;;5.17;1.80;;;9.80;99.90;;;;;;4918066;29;20210;-76
